createdAt,value
2024-03-07T00:01:35.562Z,10.64
2024-03-07T00:04:01.957Z,10.62
2024-03-07T00:06:28.333Z,10.57
2024-03-07T00:08:54.753Z,10.58
2024-03-07T00:11:21.247Z,10.59
2024-03-07T00:13:47.669Z,10.55
2024-03-07T00:16:14.049Z,10.31
2024-03-07T00:18:40.511Z,10.06
2024-03-07T00:21:07.114Z,10.36
2024-03-07T00:23:33.692Z,10.58
2024-03-07T00:26:00.145Z,10.62
2024-03-07T00:28:26.527Z,10.68
2024-03-07T00:30:52.908Z,10.68
2024-03-07T00:33:19.411Z,10.72
2024-03-07T00:35:46.008Z,10.71
2024-03-07T00:38:12.718Z,10.69
2024-03-07T00:40:39.097Z,10.67
2024-03-07T00:43:05.470Z,10.64
2024-03-07T00:45:31.852Z,10.61
2024-03-07T00:47:58.299Z,10.58
2024-03-07T00:50:24.774Z,10.42
2024-03-07T00:52:51.168Z,10.07
2024-03-07T00:55:17.718Z,10.11
2024-03-07T00:57:44.092Z,10.44
2024-03-07T01:00:10.485Z,10.52
2024-03-07T01:02:36.958Z,10.54
2024-03-07T01:05:03.590Z,10.64
2024-03-07T01:07:30.129Z,10.58
2024-03-07T01:09:56.518Z,10.62
2024-03-07T01:12:22.956Z,10.62
2024-03-07T01:14:49.395Z,10.67
2024-03-07T01:17:15.822Z,10.69
2024-03-07T01:19:42.461Z,10.72
2024-03-07T01:22:08.851Z,10.71
2024-03-07T01:24:35.388Z,10.64
2024-03-07T01:27:01.980Z,10.21
2024-03-07T01:29:28.445Z,10.07
2024-03-07T01:31:54.846Z,10.48
2024-03-07T01:34:21.230Z,10.64
2024-03-07T01:36:47.612Z,10.65
2024-03-07T01:39:14.033Z,10.69
2024-03-07T01:41:40.573Z,10.67
2024-03-07T01:44:06.947Z,10.68
2024-03-07T01:46:33.321Z,10.71
2024-03-07T01:48:59.714Z,10.65
2024-03-07T01:51:26.101Z,10.64
2024-03-07T01:53:52.617Z,10.62
2024-03-07T01:56:19.054Z,10.61
2024-03-07T01:58:45.649Z,10.55
2024-03-07T02:01:12.061Z,10.23
2024-03-07T02:03:38.719Z,9.96
2024-03-07T02:06:05.142Z,10.24
2024-03-07T02:08:31.566Z,10.52
2024-03-07T02:10:57.981Z,10.58
2024-03-07T02:13:24.372Z,10.65
2024-03-07T02:15:50.908Z,10.67
2024-03-07T02:18:17.472Z,10.71
2024-03-07T02:20:44.041Z,10.72
2024-03-07T02:23:29.144Z,10.76
2024-03-07T02:26:14.129Z,10.71
2024-03-07T02:28:59.142Z,10.71
2024-03-07T02:31:44.173Z,10.67
2024-03-07T02:34:29.289Z,10.61
2024-03-07T02:37:14.208Z,10.18
2024-03-07T02:39:59.354Z,10.17
2024-03-07T02:42:44.352Z,10.52
2024-03-07T02:45:29.366Z,10.65
2024-03-07T02:48:14.369Z,10.65
2024-03-07T02:50:59.508Z,10.67
2024-03-07T02:53:44.611Z,10.67
2024-03-07T02:56:29.622Z,10.65
2024-03-07T02:59:14.588Z,10.59
2024-03-07T03:01:59.487Z,10.58
2024-03-07T03:04:44.648Z,10.57
2024-03-07T03:07:29.276Z,10.54
2024-03-07T03:10:14.410Z,10.38
2024-03-07T03:12:59.580Z,9.99
2024-03-07T03:15:44.504Z,10.21
2024-03-07T03:18:29.566Z,10.48
2024-03-07T03:21:14.646Z,10.54
2024-03-07T03:23:59.801Z,10.57
2024-03-07T03:26:44.686Z,10.52
2024-03-07T03:29:29.710Z,10.57
2024-03-07T03:32:15.083Z,10.57
2024-03-07T03:35:00.141Z,10.54
2024-03-07T03:37:45.205Z,10.52
2024-03-07T03:40:30.169Z,10.45
2024-03-07T03:43:15.060Z,10.41
2024-03-07T03:46:00.045Z,10.10
2024-03-07T03:48:45.309Z,9.85
2024-03-07T03:51:29.979Z,10.27
2024-03-07T03:54:14.986Z,10.42
2024-03-07T03:57:00.276Z,10.51
2024-03-07T03:59:45.205Z,10.50
2024-03-07T04:02:30.068Z,10.50
2024-03-07T04:05:15.050Z,10.52
2024-03-07T04:08:00.149Z,10.48
2024-03-07T04:10:45.160Z,10.50
2024-03-07T04:13:30.303Z,10.48
2024-03-07T04:16:15.274Z,10.44
2024-03-07T04:19:00.296Z,10.37
2024-03-07T04:21:45.266Z,9.99
2024-03-07T04:24:30.154Z,9.96
2024-03-07T04:27:15.287Z,10.29
2024-03-07T04:30:00.075Z,10.42
2024-03-07T04:32:45.338Z,10.45
2024-03-07T04:35:30.442Z,10.44
2024-03-07T04:38:15.180Z,10.47
2024-03-07T04:41:00.235Z,10.42
2024-03-07T04:43:26.616Z,10.41
2024-03-07T04:45:53.023Z,10.47
2024-03-07T04:48:19.544Z,10.38
2024-03-07T04:50:46.183Z,10.44
2024-03-07T04:53:12.638Z,10.48
2024-03-07T04:55:39.014Z,10.27
2024-03-07T04:58:05.412Z,9.99
2024-03-07T05:00:31.798Z,10.29
2024-03-07T05:02:58.344Z,10.57
2024-03-07T05:05:24.963Z,10.59
2024-03-07T05:07:51.524Z,10.62
2024-03-07T05:10:17.918Z,10.67
2024-03-07T05:12:44.291Z,10.65
2024-03-07T05:15:10.667Z,10.62
2024-03-07T05:17:37.130Z,10.62
2024-03-07T05:20:03.688Z,10.62
2024-03-07T05:22:30.110Z,10.59
2024-03-07T05:24:56.475Z,10.55
2024-03-07T05:27:22.833Z,10.51
2024-03-07T05:29:49.255Z,10.41
2024-03-07T05:32:15.731Z,10.02
2024-03-07T05:34:42.112Z,10.07
2024-03-07T05:37:08.470Z,10.37
2024-03-07T05:39:34.859Z,10.52
2024-03-07T05:42:01.475Z,10.57
2024-03-07T05:44:27.978Z,10.57
2024-03-07T05:46:54.393Z,10.58
2024-03-07T05:49:20.755Z,10.54
2024-03-07T05:51:47.127Z,10.54
2024-03-07T05:54:13.492Z,10.57
2024-03-07T05:56:39.905Z,10.58
2024-03-07T05:59:06.284Z,10.61
2024-03-07T06:01:33.525Z,10.62
2024-03-07T06:03:59.890Z,10.57
2024-03-07T06:06:26.248Z,10.21
2024-03-07T06:08:52.844Z,10.03
2024-03-07T06:11:19.302Z,10.40
2024-03-07T06:13:45.710Z,10.58
2024-03-07T06:16:12.097Z,10.62
2024-03-07T06:18:38.473Z,10.68
2024-03-07T06:21:04.904Z,10.61
2024-03-07T06:23:31.348Z,10.64
2024-03-07T06:25:57.742Z,10.62
2024-03-07T06:28:24.096Z,10.57
2024-03-07T06:30:50.459Z,10.59
2024-03-07T06:33:16.950Z,10.58
2024-03-07T06:35:43.449Z,10.55
2024-03-07T06:38:09.878Z,10.52
2024-03-07T06:40:36.244Z,10.21
2024-03-07T06:43:02.647Z,9.94
2024-03-07T06:45:32.132Z,10.20
2024-03-07T06:47:58.754Z,10.45
2024-03-07T06:50:32.746Z,10.57
2024-03-07T06:53:04.775Z,10.54
2024-03-07T06:55:31.242Z,10.58
2024-03-07T06:57:57.623Z,10.62
2024-03-07T07:00:23.987Z,10.65
2024-03-07T07:02:50.432Z,10.67
2024-03-07T07:05:16.911Z,10.62
2024-03-07T07:07:43.292Z,10.65
2024-03-07T07:10:09.655Z,10.58
2024-03-07T07:12:36.062Z,10.59
2024-03-07T07:15:02.670Z,10.37
2024-03-07T07:17:29.091Z,10.02
2024-03-07T07:19:55.458Z,10.17
2024-03-07T07:22:21.821Z,10.48
2024-03-07T07:24:48.205Z,10.57
2024-03-07T07:27:14.580Z,10.59
2024-03-07T07:29:40.966Z,10.59
2024-03-07T07:32:07.521Z,10.61
2024-03-07T07:34:33.885Z,10.57
2024-03-07T07:37:00.251Z,10.54
2024-03-07T07:39:26.634Z,10.57
2024-03-07T07:41:53.112Z,10.57
2024-03-07T07:44:19.615Z,10.52
2024-03-07T07:46:45.999Z,10.45
2024-03-07T07:49:12.389Z,10.42
2024-03-07T07:51:38.888Z,10.04
2024-03-07T07:54:05.503Z,10.03
2024-03-07T07:56:31.922Z,10.42
2024-03-07T07:58:58.288Z,10.55
2024-03-07T08:01:24.679Z,10.61
2024-03-07T08:03:51.086Z,10.65
2024-03-07T08:06:17.488Z,10.65
2024-03-07T08:08:43.900Z,10.65
2024-03-07T08:11:10.349Z,10.61
2024-03-07T08:13:36.743Z,10.64
2024-03-07T08:16:03.283Z,10.64
2024-03-07T08:18:29.717Z,10.61
2024-03-07T08:20:56.666Z,10.54
2024-03-07T08:23:23.419Z,10.52
2024-03-07T08:25:49.868Z,10.21
2024-03-07T08:28:16.263Z,9.93
2024-03-07T08:30:42.631Z,10.33
2024-03-07T08:33:09.260Z,10.48
2024-03-07T08:35:36.142Z,10.51
2024-03-07T08:38:02.755Z,10.55
2024-03-07T08:40:29.940Z,10.54
2024-03-07T08:42:56.468Z,10.57
2024-03-07T08:45:22.863Z,10.57
2024-03-07T08:47:49.366Z,10.51
2024-03-07T08:50:15.828Z,10.52
2024-03-07T08:52:42.222Z,10.54
2024-03-07T08:55:08.599Z,10.57
2024-03-07T08:57:34.956Z,10.55
2024-03-07T09:00:01.447Z,10.34
2024-03-07T09:02:27.889Z,10.04
2024-03-07T09:04:54.293Z,10.27
2024-03-07T09:07:20.672Z,10.50
2024-03-07T09:09:47.054Z,10.57
2024-03-07T09:12:13.489Z,10.59
2024-03-07T09:14:39.922Z,10.61
2024-03-07T09:17:06.318Z,10.58
2024-03-07T09:19:32.696Z,10.57
2024-03-07T09:21:59.236Z,10.58
2024-03-07T09:24:25.809Z,10.55
2024-03-07T09:26:52.455Z,10.55
2024-03-07T09:29:18.999Z,10.52
2024-03-07T09:31:45.378Z,10.50
2024-03-07T09:34:11.755Z,10.38
2024-03-07T09:36:38.115Z,10.02
2024-03-07T09:39:04.667Z,10.06
2024-03-07T09:41:31.107Z,10.37
2024-03-07T09:43:57.488Z,10.48
2024-03-07T09:46:23.860Z,10.54
2024-03-07T09:48:50.228Z,10.55
2024-03-07T09:51:16.604Z,10.54
2024-03-07T09:53:43.014Z,10.57
2024-03-07T09:56:09.396Z,10.64
2024-03-07T09:58:38.358Z,10.58
2024-03-07T10:01:06.161Z,10.64
2024-03-07T10:03:32.531Z,10.61
2024-03-07T10:05:58.936Z,10.58
2024-03-07T10:08:25.531Z,10.55
2024-03-07T10:10:51.985Z,10.17
2024-03-07T10:13:18.373Z,9.93
2024-03-07T10:15:44.749Z,10.36
2024-03-07T10:18:11.600Z,10.48
2024-03-07T10:20:38.304Z,10.55
2024-03-07T10:23:04.742Z,10.57
2024-03-07T10:25:31.129Z,10.59
2024-03-07T10:27:57.656Z,10.61
2024-03-07T10:30:24.513Z,10.55
2024-03-07T10:32:51.206Z,10.52
2024-03-07T10:35:17.729Z,10.51
2024-03-07T10:37:44.160Z,10.50
2024-03-07T10:40:10.545Z,10.47
2024-03-07T10:42:36.971Z,10.44
2024-03-07T10:45:03.369Z,10.20
2024-03-07T10:47:29.802Z,9.93
2024-03-07T10:49:56.182Z,10.16
2024-03-07T10:52:22.564Z,10.41
2024-03-07T10:54:50.828Z,10.51
2024-03-07T10:57:18.898Z,10.57
2024-03-07T10:59:45.323Z,10.61
2024-03-07T11:02:12.086Z,10.62
2024-03-07T11:04:38.490Z,10.62
2024-03-07T11:07:04.887Z,10.62
2024-03-07T11:09:31.270Z,10.61
2024-03-07T11:11:57.699Z,10.64
2024-03-07T11:14:24.151Z,10.58
2024-03-07T11:16:50.560Z,10.57
2024-03-07T11:19:16.927Z,10.40
2024-03-07T11:21:43.377Z,10.03
2024-03-07T11:24:09.810Z,10.14
2024-03-07T11:26:36.192Z,10.44
2024-03-07T11:29:02.573Z,10.52
2024-03-07T11:31:29.016Z,10.57
2024-03-07T11:33:55.490Z,10.55
2024-03-07T11:36:21.879Z,10.58
2024-03-07T11:38:48.391Z,10.61
2024-03-07T11:41:15.174Z,10.61
2024-03-07T11:43:41.665Z,10.57
2024-03-07T11:46:08.032Z,10.51
2024-03-07T11:48:34.526Z,10.45
2024-03-07T11:51:01.312Z,10.47
2024-03-07T11:53:27.812Z,10.41
2024-03-07T11:55:54.222Z,10.09
2024-03-07T11:58:20.636Z,9.99
2024-03-07T12:00:47.125Z,10.42
2024-03-07T12:03:13.806Z,10.50
2024-03-07T12:05:40.222Z,10.57
2024-03-07T12:08:06.602Z,10.64
2024-03-07T12:10:32.986Z,10.68
2024-03-07T12:12:59.358Z,10.68
2024-03-07T12:15:25.748Z,10.62
2024-03-07T12:17:52.334Z,10.61
2024-03-07T12:20:18.900Z,10.61
2024-03-07T12:22:45.286Z,10.58
2024-03-07T12:25:11.819Z,10.51
2024-03-07T12:27:38.224Z,10.50
2024-03-07T12:30:04.760Z,10.18
2024-03-07T12:32:31.299Z,9.89
2024-03-07T12:34:57.772Z,10.24
2024-03-07T12:37:24.171Z,10.45
2024-03-07T12:39:50.553Z,10.50
2024-03-07T12:42:16.945Z,10.51
2024-03-07T12:44:43.371Z,10.54
2024-03-07T12:47:09.789Z,10.52
2024-03-07T12:49:36.312Z,10.54
2024-03-07T12:52:02.666Z,10.55
2024-03-07T12:54:29.050Z,10.54
2024-03-07T12:56:55.495Z,10.50
2024-03-07T12:59:21.898Z,10.50
2024-03-07T13:01:48.423Z,10.57
2024-03-07T13:04:14.832Z,10.38
2024-03-07T13:06:41.200Z,10.07
2024-03-07T13:09:07.641Z,10.21
2024-03-07T13:11:34.142Z,10.54
2024-03-07T13:14:00.702Z,10.57
2024-03-07T13:16:28.204Z,10.65
2024-03-07T13:18:55.374Z,10.62
2024-03-07T13:21:21.754Z,10.65
2024-03-07T13:23:48.175Z,10.64
2024-03-07T13:26:14.767Z,10.59
2024-03-07T13:28:41.154Z,10.59
2024-03-07T13:31:07.702Z,10.52
2024-03-07T13:33:34.327Z,10.58
2024-03-07T13:36:01.108Z,10.51
2024-03-07T13:38:27.743Z,10.45
2024-03-07T13:40:54.250Z,10.04
2024-03-07T13:43:20.655Z,10.03
2024-03-07T13:45:47.032Z,10.40
2024-03-07T13:48:13.442Z,10.52
2024-03-07T13:50:51.594Z,10.58
2024-03-07T13:53:24.231Z,10.61
2024-03-07T13:55:52.007Z,10.65
2024-03-07T13:58:19.424Z,10.67
2024-03-07T14:00:45.798Z,10.69
2024-03-07T14:03:12.198Z,10.73
2024-03-07T14:05:38.609Z,10.69
2024-03-07T14:08:05.162Z,10.67
2024-03-07T14:10:31.540Z,10.65
2024-03-07T14:12:57.960Z,10.55
2024-03-07T14:15:24.366Z,10.18
2024-03-07T14:17:50.800Z,9.97
2024-03-07T14:20:17.388Z,10.40
2024-03-07T14:22:43.786Z,10.55
2024-03-07T14:25:10.148Z,10.58
2024-03-07T14:27:36.541Z,10.65
2024-03-07T14:30:02.968Z,10.67
2024-03-07T14:32:29.475Z,10.64
2024-03-07T14:34:55.877Z,10.65
2024-03-07T14:37:22.267Z,10.62
2024-03-07T14:39:48.650Z,10.59
2024-03-07T14:42:15.045Z,10.55
2024-03-07T14:44:41.544Z,10.55
2024-03-07T14:47:07.953Z,10.54
2024-03-07T14:49:34.327Z,10.20
2024-03-07T14:52:01.667Z,9.94
2024-03-07T14:54:28.265Z,10.25
2024-03-07T14:56:54.777Z,10.48
2024-03-07T14:59:21.248Z,10.57
2024-03-07T15:01:47.685Z,10.64
2024-03-07T15:04:14.068Z,10.69
2024-03-07T15:06:40.454Z,10.65
2024-03-07T15:09:06.901Z,10.71
2024-03-07T15:11:33.394Z,10.68
2024-03-07T15:13:59.985Z,10.67
2024-03-07T15:16:33.345Z,10.64
2024-03-07T15:19:03.107Z,10.62
2024-03-07T15:21:29.471Z,10.59
2024-03-07T15:23:55.879Z,10.37
2024-03-07T15:26:22.302Z,10.06
2024-03-07T15:28:48.680Z,10.20
2024-03-07T15:31:15.068Z,10.45
2024-03-07T15:33:41.578Z,10.57
2024-03-07T15:36:08.008Z,10.61
2024-03-07T15:38:34.446Z,10.59
2024-03-07T15:41:00.838Z,10.65
2024-03-07T15:43:27.451Z,10.67
2024-03-07T15:45:53.821Z,10.61
2024-03-07T15:48:23.736Z,10.57
2024-03-07T15:50:50.551Z,10.55
2024-03-07T15:53:16.985Z,10.59
2024-03-07T15:55:43.526Z,10.54
2024-03-07T15:58:09.920Z,10.55
2024-03-07T16:00:36.474Z,10.16
2024-03-07T16:03:02.949Z,10.17
2024-03-07T16:05:29.569Z,10.52
2024-03-07T16:07:56.109Z,10.64
2024-03-07T16:10:22.456Z,10.68
2024-03-07T16:12:48.855Z,10.68
2024-03-07T16:15:16.556Z,10.68
2024-03-07T16:17:43.243Z,10.65
2024-03-07T16:20:09.685Z,10.65
2024-03-07T16:22:36.058Z,10.64
2024-03-07T16:25:02.436Z,10.64
2024-03-07T16:27:28.812Z,10.58
2024-03-07T16:29:55.213Z,10.59
2024-03-07T16:32:21.646Z,10.55
2024-03-07T16:34:48.036Z,10.17
2024-03-07T16:37:14.596Z,9.92
2024-03-07T16:39:41.151Z,10.31
2024-03-07T16:42:07.612Z,10.50
2024-03-07T16:44:36.034Z,10.55
2024-03-07T16:47:02.868Z,10.58
2024-03-07T16:49:29.258Z,10.62
2024-03-07T16:51:55.777Z,10.67
2024-03-07T16:54:22.147Z,10.67
2024-03-07T16:56:48.700Z,10.67
2024-03-07T16:59:15.101Z,10.65
2024-03-07T17:01:41.518Z,10.64
2024-03-07T17:04:07.912Z,10.65
2024-03-07T17:06:34.284Z,10.61
2024-03-07T17:09:00.735Z,10.34
2024-03-07T17:11:27.289Z,10.02
2024-03-07T17:13:53.741Z,10.31
2024-03-07T17:16:20.101Z,10.50
2024-03-07T17:18:46.684Z,10.57
2024-03-07T17:21:13.120Z,10.59
2024-03-07T17:23:39.584Z,10.59
2024-03-07T17:26:06.011Z,10.59
2024-03-07T17:28:32.411Z,10.62
2024-03-07T17:30:58.803Z,10.58
2024-03-07T17:33:25.350Z,10.57
2024-03-07T17:35:51.787Z,10.55
2024-03-07T17:38:18.250Z,10.52
2024-03-07T17:40:44.856Z,10.51
2024-03-07T17:43:11.434Z,10.37
2024-03-07T17:45:38.631Z,10.02
2024-03-07T17:48:05.922Z,10.11
2024-03-07T17:50:32.808Z,10.44
2024-03-07T17:52:59.192Z,10.54
2024-03-07T17:55:25.674Z,10.59
2024-03-07T17:57:52.068Z,10.64
2024-03-07T18:00:18.443Z,10.65
2024-03-07T18:02:44.848Z,10.64
2024-03-07T18:05:11.256Z,10.64
2024-03-07T18:07:37.628Z,10.62
2024-03-07T18:10:04.030Z,10.62
2024-03-07T18:12:30.464Z,10.57
2024-03-07T18:15:08.847Z,10.55
2024-03-07T18:17:42.739Z,10.47
2024-03-07T18:20:09.138Z,10.10
2024-03-07T18:22:35.525Z,10.04
2024-03-07T18:25:02.786Z,10.37
2024-03-07T18:27:29.164Z,10.51
2024-03-07T18:29:55.711Z,10.57
2024-03-07T18:32:22.226Z,10.55
2024-03-07T18:34:48.817Z,10.54
2024-03-07T18:37:15.188Z,10.55
2024-03-07T18:39:41.640Z,10.55
2024-03-07T18:42:08.082Z,10.54
2024-03-07T18:44:34.521Z,10.50
2024-03-07T18:47:00.929Z,10.55
2024-03-07T18:49:27.401Z,10.55
2024-03-07T18:51:53.788Z,10.50
2024-03-07T18:54:20.151Z,10.20
2024-03-07T18:56:46.532Z,10.00
2024-03-07T18:59:12.954Z,10.40
2024-03-07T19:01:39.375Z,10.57
2024-03-07T19:04:05.738Z,10.59
2024-03-07T19:06:32.100Z,10.59
2024-03-07T19:08:58.497Z,10.64
2024-03-07T19:11:25.039Z,10.65
2024-03-07T19:13:51.476Z,10.62
2024-03-07T19:16:18.010Z,10.59
2024-03-07T19:18:44.599Z,10.61
2024-03-07T19:21:12.159Z,10.54
2024-03-07T19:23:39.013Z,10.58
2024-03-07T19:26:05.385Z,10.52
2024-03-07T19:28:31.765Z,10.30
2024-03-07T19:30:58.140Z,9.97
2024-03-07T19:33:24.583Z,10.17
2024-03-07T19:35:51.296Z,10.44
2024-03-07T19:38:17.700Z,10.48
2024-03-07T19:40:44.069Z,10.50
2024-03-07T19:43:10.464Z,10.57
2024-03-07T19:45:36.855Z,10.62
2024-03-07T19:48:03.294Z,10.67
2024-03-07T19:50:29.749Z,10.64
2024-03-07T19:52:56.125Z,10.67
2024-03-07T19:55:22.531Z,10.62
2024-03-07T19:57:48.919Z,10.62
2024-03-07T20:00:15.277Z,10.62
2024-03-07T20:02:41.838Z,10.50
2024-03-07T20:05:08.223Z,10.11
2024-03-07T20:07:34.593Z,10.10
2024-03-07T20:10:00.966Z,10.44
2024-03-07T20:12:27.365Z,10.51
2024-03-07T20:14:53.815Z,10.59
2024-03-07T20:17:20.206Z,10.58
2024-03-07T20:19:46.574Z,10.57
2024-03-07T20:22:12.938Z,10.59
2024-03-07T20:24:39.315Z,10.57
2024-03-07T20:27:05.754Z,10.58
2024-03-07T20:29:32.160Z,10.55
2024-03-07T20:31:58.546Z,10.54
2024-03-07T20:34:25.069Z,10.50
2024-03-07T20:36:51.425Z,10.44
2024-03-07T20:39:17.860Z,10.11
2024-03-07T20:41:44.283Z,9.86
2024-03-07T20:44:10.701Z,10.29
2024-03-07T20:46:37.058Z,10.50
2024-03-07T20:49:03.531Z,10.59
2024-03-07T20:51:29.909Z,10.64
2024-03-07T20:53:56.291Z,10.64
2024-03-07T20:56:22.739Z,10.65
2024-03-07T20:58:49.187Z,10.65
2024-03-07T21:01:15.654Z,10.65
2024-03-07T21:03:42.580Z,10.62
2024-03-07T21:06:09.321Z,10.58
2024-03-07T21:08:35.722Z,10.54
2024-03-07T21:11:02.217Z,10.54
2024-03-07T21:13:28.699Z,10.24
2024-03-07T21:15:55.068Z,9.94
2024-03-07T21:18:21.556Z,10.18
2024-03-07T21:20:48.160Z,10.42
2024-03-07T21:23:14.638Z,10.52
2024-03-07T21:25:41.012Z,10.54
2024-03-07T21:28:07.543Z,10.55
2024-03-07T21:30:33.962Z,10.55
2024-03-07T21:33:00.533Z,10.57
2024-03-07T21:35:27.117Z,10.48
2024-03-07T21:37:53.541Z,10.50
2024-03-07T21:40:19.920Z,10.51
2024-03-07T21:42:46.300Z,10.47
2024-03-07T21:45:12.701Z,10.45
2024-03-07T21:47:40.962Z,10.38
2024-03-07T21:50:08.168Z,10.04
2024-03-07T21:52:34.541Z,10.11
2024-03-07T21:55:00.956Z,10.48
2024-03-07T21:57:27.416Z,10.57
2024-03-07T21:59:53.816Z,10.61
2024-03-07T22:02:20.266Z,10.64
2024-03-07T22:04:52.569Z,10.62
2024-03-07T22:07:20.158Z,10.62
2024-03-07T22:09:46.677Z,10.62
2024-03-07T22:12:13.106Z,10.59
2024-03-07T22:14:39.527Z,10.57
2024-03-07T22:17:06.083Z,10.54
2024-03-07T22:19:32.691Z,10.51
2024-03-07T22:21:59.303Z,10.45
2024-03-07T22:24:25.694Z,10.10
2024-03-07T22:26:52.083Z,9.94
2024-03-07T22:29:18.486Z,10.29
2024-03-07T22:31:44.842Z,10.45
2024-03-07T22:34:11.219Z,10.47
2024-03-07T22:36:37.593Z,10.52
2024-03-07T22:39:04.262Z,10.52
2024-03-07T22:41:30.744Z,10.52
2024-03-07T22:43:57.114Z,10.52
2024-03-07T22:46:23.487Z,10.52
2024-03-07T22:48:50.152Z,10.57
2024-03-07T22:51:16.653Z,10.55
2024-03-07T22:53:43.057Z,10.58
2024-03-07T22:56:09.457Z,10.57
2024-03-07T22:58:35.836Z,10.23
2024-03-07T23:01:02.238Z,9.97
2024-03-07T23:03:28.839Z,10.31
2024-03-07T23:05:55.312Z,10.51
2024-03-07T23:08:21.716Z,10.54
2024-03-07T23:10:48.103Z,10.58
2024-03-07T23:13:14.509Z,10.58
2024-03-07T23:15:40.896Z,10.58
2024-03-07T23:18:10.371Z,10.61
2024-03-07T23:20:37.013Z,10.55
2024-03-07T23:23:03.411Z,10.51
2024-03-07T23:25:30.084Z,10.52
2024-03-07T23:27:57.646Z,10.51
2024-03-07T23:30:25.250Z,10.47
2024-03-07T23:32:52.229Z,10.21
2024-03-07T23:35:18.878Z,9.92
2024-03-07T23:37:45.282Z,10.10
2024-03-07T23:40:11.656Z,10.37
2024-03-07T23:42:38.066Z,10.48
2024-03-07T23:45:04.636Z,10.54
2024-03-07T23:47:31.300Z,10.57
2024-03-07T23:49:57.713Z,10.64
2024-03-07T23:52:24.063Z,10.65
2024-03-07T23:54:50.436Z,10.65
2024-03-07T23:57:16.906Z,10.62
2024-03-07T23:59:43.318Z,10.61
